Hide A Way, Texas
Current Conditions -  °F | °C
As of 4:53 PM on Wednesday 26 Nov 2014 (Local Time) from KTYR Reporting Station
Clear Clear  
Wind Chill: 62°   Ceiling: Unl
Heat Index: 62°   Visibility: 10mi
Dew Point: 32°   Wind: 7mph
Humidity: 32%   Direction: 310°NW
Pressure: 30.19"   Gusts: NA
Location:  32.5326°N, 95.4249°W
Report Text: KTYR 262253Z 31006KT 10SM CLR 17/00 A3019 RMK AO2 SLP222 T01670000
Loading
Personal Weather Stations






























Interactive Weather Map New forecast layout! Learn more

10-Day Weather Forecast

Advertisements
Track Severe Weather on mobile